createdAt,value
2022-12-31T00:02:13.300Z,54.63
2022-12-31T00:04:40.598Z,54.64
2022-12-31T00:07:07.564Z,54.53
2022-12-31T00:09:34.489Z,54.45
2022-12-31T00:12:01.465Z,54.52
2022-12-31T00:14:28.482Z,54.59
2022-12-31T00:16:55.556Z,54.54
2022-12-31T00:19:22.696Z,54.40
2022-12-31T00:21:49.643Z,54.51
2022-12-31T00:24:16.747Z,54.55
2022-12-31T00:26:43.764Z,54.45
2022-12-31T00:29:11.015Z,54.38
2022-12-31T00:31:39.277Z,54.28
2022-12-31T00:34:07.185Z,54.35
2022-12-31T00:36:37.793Z,54.30
2022-12-31T00:39:07.250Z,54.29
2022-12-31T00:41:34.962Z,54.33
2022-12-31T00:44:02.666Z,54.35
2022-12-31T00:46:29.948Z,54.23
2022-12-31T00:48:57.039Z,54.36
2022-12-31T00:51:27.575Z,54.27
2022-12-31T00:53:56.349Z,54.27
2022-12-31T00:56:26.187Z,54.37
2022-12-31T00:58:53.761Z,54.23
2022-12-31T01:01:41.120Z,54.24
2022-12-31T01:04:15.955Z,54.38
2022-12-31T01:06:44.371Z,54.24
2022-12-31T01:09:13.535Z,54.43
2022-12-31T01:11:42.223Z,54.23
2022-12-31T01:14:16.133Z,54.42
2022-12-31T01:16:53.705Z,54.22
2022-12-31T01:19:24.542Z,54.36
2022-12-31T01:21:52.444Z,54.36
2022-12-31T01:24:20.091Z,54.14
2022-12-31T01:26:47.137Z,54.26
2022-12-31T01:29:14.698Z,54.28
2022-12-31T01:31:42.122Z,54.19
2022-12-31T01:34:09.679Z,54.14
2022-12-31T01:36:38.131Z,54.17
2022-12-31T01:39:07.192Z,54.10
2022-12-31T01:41:40.111Z,54.06
2022-12-31T01:44:13.133Z,54.24
2022-12-31T01:46:49.446Z,54.20
2022-12-31T01:49:39.449Z,54.06
2022-12-31T01:52:13.477Z,54.21
2022-12-31T01:54:52.986Z,54.20
2022-12-31T01:57:21.277Z,54.10
2022-12-31T01:59:48.347Z,54.11
2022-12-31T02:02:16.466Z,54.11
2022-12-31T02:04:43.849Z,54.01
2022-12-31T02:07:11.748Z,54.13
2022-12-31T02:09:41.411Z,54.07
2022-12-31T02:12:09.898Z,54.00
2022-12-31T02:14:48.088Z,53.90
2022-12-31T02:17:58.193Z,53.95
2022-12-31T02:21:05.140Z,53.92
2022-12-31T02:24:01.796Z,53.90
2022-12-31T02:26:45.825Z,53.82
2022-12-31T02:29:34.040Z,53.69
2022-12-31T02:32:07.955Z,53.83
2022-12-31T02:34:40.884Z,53.79
2022-12-31T02:37:12.625Z,53.70
2022-12-31T02:39:44.140Z,53.89
2022-12-31T02:42:11.868Z,53.79
2022-12-31T02:44:41.810Z,53.59
2022-12-31T02:47:08.689Z,53.70
2022-12-31T02:50:12.794Z,53.66
2022-12-31T02:53:07.333Z,53.71
2022-12-31T02:55:37.353Z,53.60
2022-12-31T02:58:45.441Z,53.49
2022-12-31T03:04:33.344Z,53.72
2022-12-31T03:07:05.930Z,53.52
2022-12-31T03:09:33.502Z,53.49
2022-12-31T03:12:28.926Z,53.33
2022-12-31T03:14:56.696Z,53.39
2022-12-31T03:17:23.966Z,53.50
2022-12-31T03:20:09.716Z,53.31
2022-12-31T03:22:43.572Z,53.37
2022-12-31T03:25:33.849Z,53.40
2022-12-31T03:28:14.810Z,53.38
2022-12-31T03:30:45.429Z,53.30
2022-12-31T03:33:13.039Z,53.39
2022-12-31T03:35:55.660Z,53.37
2022-12-31T03:38:22.635Z,53.31
2022-12-31T03:40:52.322Z,53.32
2022-12-31T03:43:20.339Z,53.36
2022-12-31T03:45:51.918Z,53.26
2022-12-31T03:48:20.074Z,53.31
2022-12-31T03:50:47.137Z,53.21
2022-12-31T03:53:15.343Z,53.16
2022-12-31T03:55:42.389Z,53.33
2022-12-31T03:58:09.453Z,53.32
2022-12-31T04:00:36.905Z,53.20
2022-12-31T04:03:05.684Z,53.26
2022-12-31T04:05:33.913Z,53.29
2022-12-31T04:08:00.857Z,53.26
2022-12-31T04:10:28.142Z,53.21
2022-12-31T04:12:55.025Z,53.18
2022-12-31T04:15:22.289Z,53.24
2022-12-31T04:17:49.463Z,53.17
2022-12-31T04:20:16.867Z,53.29
2022-12-31T04:22:44.549Z,53.15
2022-12-31T04:25:13.380Z,53.22
2022-12-31T04:27:42.014Z,53.20
2022-12-31T04:30:10.152Z,53.01
2022-12-31T04:32:37.261Z,53.20
2022-12-31T04:35:04.834Z,53.07
2022-12-31T04:40:17.401Z,53.11
2022-12-31T04:42:45.295Z,53.14
2022-12-31T04:45:12.218Z,52.99
2022-12-31T04:47:39.118Z,53.04
2022-12-31T04:50:07.571Z,53.16
2022-12-31T04:52:38.750Z,53.12
2022-12-31T04:55:08.006Z,53.08
2022-12-31T04:57:35.424Z,53.09
2022-12-31T05:00:02.671Z,53.08
2022-12-31T05:02:30.325Z,53.08
2022-12-31T05:04:57.460Z,53.01
2022-12-31T05:07:24.383Z,53.14
2022-12-31T05:09:51.713Z,53.11
2022-12-31T05:12:19.463Z,53.25
2022-12-31T05:14:46.577Z,53.27
2022-12-31T05:17:13.463Z,53.05
2022-12-31T05:19:40.644Z,53.24
2022-12-31T05:22:25.906Z,53.36
2022-12-31T05:24:52.812Z,53.18
2022-12-31T05:27:19.905Z,53.20
2022-12-31T05:29:47.643Z,53.26
2022-12-31T05:32:14.812Z,53.22
2022-12-31T05:34:42.671Z,53.24
2022-12-31T05:37:10.009Z,53.19
2022-12-31T05:39:36.935Z,53.12
2022-12-31T05:42:04.282Z,53.31
2022-12-31T05:44:31.622Z,53.11
2022-12-31T05:46:59.036Z,53.21
2022-12-31T05:49:26.025Z,53.28
2022-12-31T05:51:53.008Z,53.24
2022-12-31T05:54:20.027Z,53.21
2022-12-31T05:56:47.005Z,53.28
2022-12-31T05:59:14.237Z,53.20
2022-12-31T06:01:41.354Z,53.14
2022-12-31T06:04:08.364Z,53.22
2022-12-31T06:06:35.534Z,53.30
2022-12-31T06:09:02.739Z,53.25
2022-12-31T06:11:30.320Z,53.34
2022-12-31T06:13:58.545Z,53.09
2022-12-31T06:16:26.984Z,53.22
2022-12-31T06:18:54.439Z,53.28
2022-12-31T06:21:22.643Z,53.17
2022-12-31T06:23:49.768Z,53.16
2022-12-31T06:26:16.834Z,53.26
2022-12-31T06:28:43.818Z,53.12
2022-12-31T06:31:13.467Z,53.07
2022-12-31T06:33:40.850Z,53.24
2022-12-31T06:36:12.758Z,53.23
2022-12-31T06:38:41.142Z,53.09
2022-12-31T06:41:10.633Z,53.28
2022-12-31T06:43:38.917Z,53.25
2022-12-31T06:46:08.306Z,53.28
2022-12-31T06:48:35.458Z,53.12
2022-12-31T06:51:16.763Z,53.18
2022-12-31T06:53:45.425Z,53.21
2022-12-31T06:56:17.496Z,53.21
2022-12-31T06:58:44.986Z,53.27
2022-12-31T07:01:15.215Z,53.32
2022-12-31T07:04:20.581Z,53.12
2022-12-31T07:07:13.631Z,53.12
2022-12-31T07:10:29.489Z,53.14
2022-12-31T07:13:27.996Z,53.05
2022-12-31T07:16:03.218Z,53.19
2022-12-31T07:19:11.266Z,53.09
2022-12-31T07:21:40.828Z,53.27
2022-12-31T07:24:09.826Z,53.15
2022-12-31T07:26:57.016Z,53.24
2022-12-31T07:29:42.921Z,53.33
2022-12-31T07:32:39.570Z,53.16
2022-12-31T07:35:10.282Z,53.15
2022-12-31T07:38:06.089Z,53.26
2022-12-31T07:40:39.052Z,53.17
2022-12-31T07:43:25.232Z,53.26
2022-12-31T07:46:01.507Z,53.13
2022-12-31T07:48:29.935Z,53.20
2022-12-31T07:50:58.242Z,53.07
2022-12-31T07:53:26.264Z,53.26
2022-12-31T07:56:00.017Z,53.17
2022-12-31T07:59:08.530Z,53.40
2022-12-31T08:02:02.339Z,53.59
2022-12-31T08:04:47.360Z,53.43
2022-12-31T08:07:36.951Z,53.38
2022-12-31T08:10:27.300Z,53.46
2022-12-31T08:13:02.820Z,53.56
2022-12-31T08:15:30.993Z,53.65
2022-12-31T08:17:58.249Z,53.37
2022-12-31T08:20:26.942Z,53.47
2022-12-31T08:23:03.215Z,53.54
2022-12-31T08:25:52.071Z,53.57
2022-12-31T08:28:33.990Z,53.63
2022-12-31T08:31:07.119Z,53.35
2022-12-31T08:34:00.693Z,53.40
2022-12-31T08:36:38.084Z,53.54
2022-12-31T08:39:16.199Z,53.54
2022-12-31T08:41:49.910Z,53.45
2022-12-31T08:44:41.391Z,53.44
2022-12-31T08:47:26.922Z,53.54
2022-12-31T08:49:56.640Z,53.49
2022-12-31T08:52:26.289Z,53.44
2022-12-31T08:54:53.876Z,53.58
2022-12-31T08:57:29.935Z,53.43
2022-12-31T09:00:16.105Z,53.45
2022-12-31T09:03:03.317Z,53.41
2022-12-31T09:06:06.909Z,53.45
2022-12-31T09:08:50.122Z,53.23
2022-12-31T09:11:28.823Z,53.42
2022-12-31T09:14:13.710Z,53.39
2022-12-31T09:16:59.679Z,53.44
2022-12-31T09:19:28.140Z,53.29
2022-12-31T09:21:55.843Z,53.49
2022-12-31T09:24:23.189Z,53.54
2022-12-31T09:26:53.061Z,53.54
2022-12-31T09:29:32.082Z,53.48
2022-12-31T09:32:11.116Z,53.47
2022-12-31T09:34:56.692Z,53.41
2022-12-31T09:37:52.591Z,53.53
2022-12-31T09:40:28.655Z,53.37
2022-12-31T09:43:14.452Z,53.45
2022-12-31T09:46:03.498Z,53.35
2022-12-31T09:48:55.423Z,53.36
2022-12-31T09:51:32.472Z,53.49
2022-12-31T09:54:20.321Z,53.55
2022-12-31T09:56:59.890Z,53.75
2022-12-31T09:59:57.497Z,53.83
2022-12-31T10:03:02.013Z,53.72
2022-12-31T10:06:00.927Z,53.71
2022-12-31T10:09:05.497Z,53.65
2022-12-31T10:12:03.045Z,53.79
2022-12-31T10:15:07.475Z,53.69
2022-12-31T10:17:51.086Z,53.79
2022-12-31T10:20:41.573Z,53.70
2022-12-31T10:23:47.674Z,53.84
2022-12-31T10:26:37.978Z,53.66
2022-12-31T10:29:58.205Z,53.83
2022-12-31T10:32:41.224Z,53.70
2022-12-31T10:35:21.197Z,53.77
2022-12-31T10:38:20.769Z,53.73
2022-12-31T10:41:06.531Z,53.62
2022-12-31T10:43:46.648Z,53.59
2022-12-31T10:46:23.132Z,53.71
2022-12-31T10:49:12.218Z,53.75
2022-12-31T10:51:57.544Z,53.51
2022-12-31T10:54:43.472Z,53.75
2022-12-31T10:57:42.004Z,53.61
2022-12-31T11:00:21.897Z,53.71
2022-12-31T11:03:02.800Z,53.66
2022-12-31T11:05:33.611Z,53.63
2022-12-31T11:08:03.321Z,53.65
2022-12-31T11:10:48.963Z,53.61
2022-12-31T11:13:40.925Z,53.60
2022-12-31T11:16:38.681Z,53.61
2022-12-31T11:19:27.745Z,53.60
2022-12-31T11:22:09.220Z,53.49
2022-12-31T11:25:04.719Z,53.62
2022-12-31T11:28:05.339Z,53.51
2022-12-31T11:30:58.251Z,53.56
2022-12-31T11:33:50.184Z,53.53
2022-12-31T11:37:05.621Z,53.56
2022-12-31T11:39:38.995Z,53.53
2022-12-31T11:42:21.193Z,53.46
2022-12-31T11:45:00.434Z,53.56
2022-12-31T11:48:28.971Z,53.51
2022-12-31T11:51:10.110Z,53.61
2022-12-31T11:54:14.624Z,53.62
2022-12-31T11:56:52.984Z,54.20
2022-12-31T11:59:21.470Z,54.73
2022-12-31T12:01:48.433Z,55.02
2022-12-31T12:04:18.540Z,55.11
2022-12-31T12:06:46.229Z,55.13
2022-12-31T12:09:30.247Z,55.39
2022-12-31T12:12:06.471Z,55.54
2022-12-31T12:14:37.458Z,55.69
2022-12-31T12:17:15.484Z,55.75
2022-12-31T12:19:46.643Z,55.89
2022-12-31T12:22:26.914Z,55.80
2022-12-31T12:24:56.988Z,56.34
2022-12-31T12:27:27.897Z,56.79
2022-12-31T12:29:56.444Z,56.97
2022-12-31T12:32:26.703Z,56.86
2022-12-31T12:34:54.592Z,56.86
2022-12-31T12:37:24.399Z,56.98
2022-12-31T12:40:18.269Z,57.13
2022-12-31T12:42:49.422Z,57.58
2022-12-31T12:45:19.872Z,57.99
2022-12-31T12:47:49.867Z,58.05
2022-12-31T12:50:26.260Z,58.56
2022-12-31T12:53:29.095Z,58.88
2022-12-31T12:56:30.659Z,59.08
2022-12-31T12:59:13.871Z,58.85
2022-12-31T13:01:46.777Z,58.55
2022-12-31T13:04:34.394Z,58.24
2022-12-31T13:07:28.875Z,58.24
2022-12-31T13:10:08.413Z,58.41
2022-12-31T13:13:23.253Z,58.26
2022-12-31T13:16:19.148Z,58.27
2022-12-31T13:18:55.475Z,58.35
2022-12-31T13:21:45.181Z,58.42
2022-12-31T13:24:29.476Z,58.24
2022-12-31T13:27:08.794Z,58.31
2022-12-31T13:29:37.740Z,58.37
2022-12-31T13:32:08.363Z,58.13
2022-12-31T13:34:40.168Z,58.05
2022-12-31T13:37:22.688Z,57.97
2022-12-31T13:39:54.064Z,57.92
2022-12-31T13:42:34.176Z,57.81
2022-12-31T13:45:24.078Z,57.71
2022-12-31T13:48:05.857Z,57.65
2022-12-31T13:50:48.681Z,57.56
2022-12-31T13:53:38.817Z,57.41
2022-12-31T13:56:19.595Z,57.48
2022-12-31T13:59:00.628Z,57.31
2022-12-31T14:01:34.988Z,57.48
2022-12-31T14:04:08.051Z,57.36
2022-12-31T14:06:34.977Z,57.27
2022-12-31T14:09:05.735Z,57.34
2022-12-31T14:12:14.452Z,57.17
2022-12-31T14:15:35.602Z,57.14
2022-12-31T14:18:05.498Z,57.17
2022-12-31T14:20:52.218Z,57.14
2022-12-31T14:23:24.913Z,57.29
2022-12-31T14:25:57.817Z,57.24
2022-12-31T14:28:46.643Z,57.17
2022-12-31T14:31:20.189Z,57.20
2022-12-31T14:33:55.443Z,57.11
2022-12-31T14:36:43.415Z,57.30
2022-12-31T14:39:33.004Z,57.43
2022-12-31T14:42:33.187Z,57.57
2022-12-31T14:45:18.867Z,57.83
2022-12-31T14:48:26.117Z,57.93
2022-12-31T14:50:53.381Z,57.83
2022-12-31T14:53:51.158Z,57.59
2022-12-31T14:56:31.696Z,57.54
2022-12-31T14:59:01.292Z,57.62
2022-12-31T15:01:29.382Z,57.49
2022-12-31T15:03:58.300Z,57.45
2022-12-31T15:06:45.578Z,57.37
2022-12-31T15:09:48.077Z,57.52
2022-12-31T15:12:25.330Z,57.34
2022-12-31T15:15:09.844Z,57.42
2022-12-31T15:17:58.523Z,57.42
2022-12-31T15:20:46.620Z,57.40
2022-12-31T15:23:21.267Z,57.22
2022-12-31T15:25:54.190Z,57.27
2022-12-31T15:28:40.039Z,57.24
2022-12-31T15:31:21.169Z,56.89
2022-12-31T15:33:56.063Z,57.08
2022-12-31T15:36:26.434Z,56.84
2022-12-31T15:39:25.918Z,56.82
2022-12-31T15:44:55.504Z,56.71
2022-12-31T15:47:37.187Z,56.57
2022-12-31T15:50:08.109Z,56.72
2022-12-31T15:52:43.226Z,56.69
2022-12-31T15:55:24.683Z,56.70
2022-12-31T15:57:53.950Z,56.70
2022-12-31T16:00:23.254Z,56.53
2022-12-31T16:02:54.548Z,56.56
2022-12-31T16:05:27.436Z,56.60
2022-12-31T16:07:56.665Z,56.50
2022-12-31T16:10:32.502Z,56.46
2022-12-31T16:13:00.401Z,56.48
2022-12-31T16:15:33.499Z,56.36
2022-12-31T16:18:06.448Z,56.40
2022-12-31T16:20:34.917Z,56.46
2022-12-31T16:23:03.606Z,56.48
2022-12-31T16:25:33.520Z,56.48
2022-12-31T16:28:02.943Z,56.32
2022-12-31T16:30:32.362Z,56.22
2022-12-31T16:33:02.688Z,56.23
2022-12-31T16:35:32.552Z,56.20
2022-12-31T16:38:10.361Z,56.28
2022-12-31T16:40:38.854Z,56.34
2022-12-31T16:43:30.185Z,56.30
2022-12-31T16:46:06.989Z,56.47
2022-12-31T16:48:34.313Z,56.41
2022-12-31T16:51:01.403Z,56.30
2022-12-31T16:53:30.944Z,56.24
2022-12-31T16:56:11.273Z,56.30
2022-12-31T16:58:45.441Z,56.18
2022-12-31T17:01:19.556Z,56.11
2022-12-31T17:03:52.363Z,56.25
2022-12-31T17:06:21.535Z,56.11
2022-12-31T17:08:59.449Z,56.17
2022-12-31T17:11:35.520Z,56.09
2022-12-31T17:14:08.325Z,55.91
2022-12-31T17:17:02.141Z,56.01
2022-12-31T17:19:45.602Z,56.07
2022-12-31T17:22:32.812Z,56.16
2022-12-31T17:25:27.718Z,55.96
2022-12-31T17:27:56.681Z,55.96
2022-12-31T17:30:35.762Z,55.98
2022-12-31T17:33:22.670Z,55.88
2022-12-31T17:36:12.598Z,55.92
2022-12-31T17:38:39.842Z,55.95
2022-12-31T17:41:08.756Z,55.98
2022-12-31T17:43:37.775Z,56.02
2022-12-31T17:46:16.834Z,56.11
2022-12-31T17:48:46.354Z,56.17
2022-12-31T17:51:13.272Z,56.13
2022-12-31T17:53:40.245Z,56.36
2022-12-31T17:56:14.498Z,56.36
2022-12-31T17:58:49.699Z,56.29
2022-12-31T18:01:20.711Z,56.40
2022-12-31T18:03:51.526Z,56.37
2022-12-31T18:06:21.718Z,56.35
2022-12-31T18:08:49.873Z,56.37
2022-12-31T18:11:24.943Z,56.29
2022-12-31T18:13:54.131Z,56.28
2022-12-31T18:16:21.174Z,56.25
2022-12-31T18:18:48.300Z,56.31
2022-12-31T18:21:25.525Z,56.15
2022-12-31T18:26:22.323Z,56.11
2022-12-31T18:28:50.168Z,56.04
2022-12-31T18:31:21.433Z,56.11
2022-12-31T18:33:48.918Z,56.09
2022-12-31T18:36:18.479Z,56.12
2022-12-31T18:38:46.289Z,56.25
2022-12-31T18:41:27.034Z,56.16
2022-12-31T18:43:55.026Z,56.14
2022-12-31T18:46:24.404Z,56.25
2022-12-31T18:48:51.592Z,56.21
2022-12-31T18:51:26.459Z,56.22
2022-12-31T18:53:58.385Z,56.24
2022-12-31T18:56:25.420Z,56.25
2022-12-31T18:58:52.436Z,56.19
2022-12-31T19:01:31.762Z,56.17
2022-12-31T19:04:04.362Z,56.28
2022-12-31T19:06:31.656Z,56.24
2022-12-31T19:09:00.820Z,56.13
2022-12-31T19:11:28.580Z,56.19
2022-12-31T19:13:55.594Z,56.38
2022-12-31T19:16:22.610Z,56.43
2022-12-31T19:18:50.928Z,56.39
2022-12-31T19:21:20.929Z,56.52
2022-12-31T19:23:48.418Z,56.55
2022-12-31T19:26:18.221Z,56.61
2022-12-31T19:28:46.643Z,56.66
2022-12-31T19:31:14.365Z,56.61
2022-12-31T19:33:43.581Z,56.59
2022-12-31T19:36:20.759Z,56.63
2022-12-31T19:38:47.701Z,56.87
2022-12-31T19:41:20.035Z,57.03
2022-12-31T19:44:40.037Z,56.92
2022-12-31T19:47:08.741Z,56.73
2022-12-31T19:49:36.133Z,56.80
2022-12-31T19:52:03.774Z,56.75
2022-12-31T19:54:30.708Z,56.73
2022-12-31T19:56:57.639Z,56.70
2022-12-31T19:59:24.695Z,56.69
2022-12-31T20:01:51.847Z,56.64
2022-12-31T20:04:21.774Z,56.74
2022-12-31T20:06:49.279Z,57.15
2022-12-31T20:09:17.396Z,57.12
2022-12-31T20:11:44.279Z,57.16
2022-12-31T20:14:12.229Z,57.11
2022-12-31T20:16:39.224Z,57.13
2022-12-31T20:19:07.334Z,56.97
2022-12-31T20:21:34.958Z,56.89
2022-12-31T20:24:01.992Z,56.89
2022-12-31T20:26:28.934Z,56.84
2022-12-31T20:28:55.907Z,56.77
2022-12-31T20:31:27.696Z,56.65
2022-12-31T20:33:55.763Z,56.67
2022-12-31T20:36:23.809Z,56.60
2022-12-31T20:38:52.286Z,56.51
2022-12-31T20:41:22.377Z,56.53
2022-12-31T20:43:51.682Z,56.39
2022-12-31T20:46:22.971Z,56.52
2022-12-31T20:48:51.587Z,56.40
2022-12-31T20:51:22.490Z,56.37
2022-12-31T20:53:52.128Z,56.32
2022-12-31T20:56:19.380Z,56.25
2022-12-31T20:58:46.699Z,56.34
2022-12-31T21:01:15.196Z,56.27
2022-12-31T21:06:32.638Z,56.47
2022-12-31T21:09:01.692Z,56.58
2022-12-31T21:11:47.389Z,56.67
2022-12-31T21:14:14.555Z,56.74
2022-12-31T21:16:41.557Z,56.95
2022-12-31T21:19:12.470Z,56.87
2022-12-31T21:21:39.455Z,57.06
2022-12-31T21:24:06.854Z,57.19
2022-12-31T21:26:34.740Z,57.28
2022-12-31T21:29:01.884Z,57.37
2022-12-31T21:31:28.896Z,57.36
2022-12-31T21:33:56.001Z,57.45
2022-12-31T21:36:23.230Z,57.44
2022-12-31T21:38:50.215Z,57.54
2022-12-31T21:41:35.811Z,57.67
2022-12-31T21:44:03.587Z,57.66
2022-12-31T21:46:30.932Z,57.73
2022-12-31T21:48:59.493Z,57.50
2022-12-31T21:51:27.253Z,57.69
2022-12-31T21:53:54.217Z,57.59
2022-12-31T21:56:22.974Z,57.77
2022-12-31T21:59:14.456Z,57.81
2022-12-31T22:02:00.916Z,57.73
2022-12-31T22:05:01.973Z,57.85
2022-12-31T22:07:15.436Z,57.88
2022-12-31T22:09:43.899Z,57.70
2022-12-31T22:12:11.567Z,57.80
2022-12-31T22:14:38.470Z,57.74
2022-12-31T22:17:05.446Z,57.74
2022-12-31T22:19:43.482Z,57.92
2022-12-31T22:22:20.169Z,57.71
2022-12-31T22:24:47.112Z,57.85
2022-12-31T22:27:29.541Z,57.75
2022-12-31T22:29:57.267Z,57.83
2022-12-31T22:32:24.263Z,57.83
2022-12-31T22:34:51.165Z,57.86
2022-12-31T22:37:46.550Z,57.76
2022-12-31T22:40:05.788Z,57.83
2022-12-31T22:42:32.721Z,57.77
2022-12-31T22:44:59.778Z,57.82
2022-12-31T22:47:26.798Z,57.87
2022-12-31T22:49:54.380Z,57.79
2022-12-31T22:52:22.632Z,57.89
2022-12-31T22:54:49.508Z,57.82
2022-12-31T22:57:20.212Z,57.94
2022-12-31T22:59:47.680Z,57.78
2022-12-31T23:02:14.721Z,57.89
2022-12-31T23:04:41.854Z,58.05
2022-12-31T23:07:09.025Z,57.97
2022-12-31T23:09:54.320Z,58.00
2022-12-31T23:12:21.336Z,57.90
2022-12-31T23:15:06.735Z,57.93
2022-12-31T23:17:52.790Z,57.98
2022-12-31T23:20:41.662Z,57.96
2022-12-31T23:23:14.471Z,58.03
2022-12-31T23:25:44.316Z,57.88
2022-12-31T23:28:14.326Z,57.99
2022-12-31T23:30:42.376Z,57.90
2022-12-31T23:33:15.270Z,57.99
2022-12-31T23:35:42.340Z,58.03
2022-12-31T23:38:09.836Z,58.09
2022-12-31T23:40:36.757Z,58.19
2022-12-31T23:43:06.330Z,58.10
2022-12-31T23:45:34.392Z,58.27
2022-12-31T23:48:01.784Z,58.22
2022-12-31T23:50:29.047Z,58.16
2022-12-31T23:52:55.967Z,58.26
2022-12-31T23:55:22.988Z,58.31
2022-12-31T23:57:50.250Z,58.56
